Time;durP1;ratioP1;P1;durP2;ratioP2;P2;SDS_P1;SDS_P2;PMS_P1;PMS_P2;Temp;Humidity;BMP_temperature;BMP_pressure;BME280_temperature;BME280_humidity;BME280_pressure;Samples;Min_cycle;Max_cycle;Signal;HPM_P1;HPM_P2
2024/01/02 00:00:17;;;;;;;2.50;1.20;;;;;;;8.04;100.00;99584.78;5047761;28;20248;-78
2024/01/02 00:02:43;;;;;;;2.47;1.00;;;;;;;8.11;100.00;99582.97;5045077;28;20233;-78
2024/01/02 00:05:08;;;;;;;1.10;0.90;;;;;;;8.04;100.00;99574.47;5051704;28;20194;-78
2024/01/02 00:07:34;;;;;;;2.93;1.00;;;;;;;8.00;100.00;99570.22;5052693;28;20192;-77
2024/01/02 00:09:59;;;;;;;1.50;1.10;;;;;;;8.02;100.00;99573.63;5054983;28;20548;-78
2024/01/02 00:12:24;;;;;;;3.17;1.10;;;;;;;8.02;100.00;99560.75;5049304;28;20194;-78
2024/01/02 00:14:51;;;;;;;2.30;1.10;;;;;;;7.99;100.00;99555.63;5053055;28;20210;-78
2024/01/02 00:17:17;;;;;;;2.40;1.10;;;;;;;7.99;100.00;99552.19;5052756;28;20195;-78
2024/01/02 00:19:42;;;;;;;1.37;0.97;;;;;;;8.01;100.00;99545.31;5051697;28;20183;-77
2024/01/02 00:22:07;;;;;;;2.37;1.03;;;;;;;8.05;100.00;99544.41;5070830;28;20195;-77
2024/01/02 00:24:33;;;;;;;2.93;0.90;;;;;;;8.02;100.00;99532.38;5049941;28;20435;-77
2024/01/02 00:26:58;;;;;;;2.97;1.10;;;;;;;8.09;100.00;99528.91;5051543;28;20197;-76
2024/01/02 00:29:23;;;;;;;2.53;0.83;;;;;;;8.08;100.00;99526.34;5053334;28;20196;-78
2024/01/02 00:31:49;;;;;;;1.30;0.70;;;;;;;8.14;100.00;99515.94;5052647;28;20261;-77
2024/01/02 00:34:14;;;;;;;3.07;0.90;;;;;;;8.17;100.00;99509.91;5053969;28;20202;-78
2024/01/02 00:36:40;;;;;;;1.30;0.80;;;;;;;8.16;100.00;99506.47;5049046;28;20191;-78
2024/01/02 00:39:06;;;;;;;1.17;0.70;;;;;;;8.14;100.00;99502.22;5053230;28;20248;-78
2024/01/02 00:41:32;;;;;;;2.33;0.93;;;;;;;8.14;100.00;99490.19;5046952;28;20188;-76
2024/01/02 00:43:57;;;;;;;1.97;0.70;;;;;;;8.15;100.00;99496.19;5048897;28;20362;-78
2024/01/02 00:46:23;;;;;;;3.07;0.80;;;;;;;8.21;100.00;99485.78;5056419;28;20355;-78
2024/01/02 00:48:48;;;;;;;1.40;0.80;;;;;;;8.26;100.00;99475.44;5058115;28;20182;-76
2024/01/02 00:51:13;;;;;;;0.90;0.53;;;;;;;8.24;100.00;99478.88;5049799;28;20191;-77
2024/01/02 00:53:39;;;;;;;0.90;0.70;;;;;;;8.25;100.00;99472.00;5052304;28;20255;-78
2024/01/02 00:56:04;;;;;;;1.80;0.90;;;;;;;8.25;100.00;99472.00;5050194;28;20534;-77
2024/01/02 00:58:29;;;;;;;1.77;0.70;;;;;;;8.32;100.00;99470.19;5052407;28;20218;-77
2024/01/02 01:00:55;;;;;;;2.00;0.60;;;;;;;8.32;100.00;99459.91;5056512;28;20186;-78
2024/01/02 01:03:20;;;;;;;2.50;1.00;;;;;;;8.41;100.00;99451.19;5045442;28;20261;-78
2024/01/02 01:05:45;;;;;;;1.10;0.60;;;;;;;8.43;100.00;99452.84;5047143;28;20186;-77
2024/01/02 01:08:11;;;;;;;0.50;0.43;;;;;;;8.41;100.00;99440.88;5049004;28;20182;-78
2024/01/02 01:10:36;;;;;;;0.93;0.50;;;;;;;8.41;100.00;99435.72;5044508;28;20186;-78
2024/01/02 01:13:02;;;;;;;2.40;0.70;;;;;;;8.47;100.00;99425.34;5048234;28;20766;-76
2024/01/02 01:15:27;;;;;;;1.00;0.90;;;;;;;8.43;100.00;99426.25;5054353;28;20194;-79
2024/01/02 01:17:52;;;;;;;0.90;0.40;;;;;;;8.46;100.00;99424.47;5050506;28;20667;-78
2024/01/02 01:20:18;;;;;;;1.10;0.70;;;;;;;8.43;100.00;99415.94;5050799;28;20848;-78
2024/01/02 01:22:43;;;;;;;1.37;0.77;;;;;;;8.43;100.00;99415.94;5052530;28;20705;-77
2024/01/02 01:25:08;;;;;;;1.73;0.80;;;;;;;8.43;100.00;99411.59;5055193;28;20708;-78
2024/01/02 01:27:34;;;;;;;1.50;0.67;;;;;;;8.47;100.00;99407.28;5049912;28;20178;-77
2024/01/02 01:29:59;;;;;;;2.47;0.90;;;;;;;8.46;100.00;99409.00;5054201;28;20273;-78
2024/01/02 01:32:24;;;;;;;0.50;0.50;;;;;;;8.48;100.00;99407.28;5055464;28;20231;-78
2024/01/02 01:34:51;;;;;;;1.70;0.73;;;;;;;8.46;100.00;99397.84;5047945;28;20207;-77
2024/01/02 01:37:16;;;;;;;2.17;0.60;;;;;;;8.44;100.00;99400.41;5051085;28;20197;-77
2024/01/02 01:39:42;;;;;;;0.73;0.73;;;;;;;8.45;100.00;99399.53;5047086;28;20202;-78
2024/01/02 01:42:08;;;;;;;0.70;0.60;;;;;;;8.42;100.00;99399.59;5047093;28;20827;-77
2024/01/02 01:44:33;;;;;;;2.07;0.60;;;;;;;8.41;100.00;99392.72;5047675;28;20590;-77
2024/01/02 01:46:58;;;;;;;1.30;0.60;;;;;;;8.44;100.00;99397.84;5049093;28;20191;-77
2024/01/02 01:49:24;;;;;;;1.30;0.60;;;;;;;8.46;100.00;99393.53;5052243;28;20246;-78
2024/01/02 01:51:51;;;;;;;1.13;0.40;;;;;;;8.45;100.00;99396.13;5054664;28;20190;-77
2024/01/02 01:54:17;;;;;;;1.30;0.40;;;;;;;8.47;100.00;99390.06;5051029;28;20198;-77
2024/01/02 01:56:43;;;;;;;2.17;0.70;;;;;;;8.51;100.00;99376.28;5045673;28;20179;-77
2024/01/02 01:59:11;;;;;;;1.90;0.67;;;;;;;8.48;100.00;99378.03;5055301;28;20782;-78
2024/01/02 02:01:38;;;;;;;1.00;0.50;;;;;;;8.49;100.00;99357.41;5049997;28;20214;-77
2024/01/02 02:04:03;;;;;;;1.47;0.70;;;;;;;8.49;100.00;99357.41;5045957;28;20229;-77
2024/01/02 02:06:29;;;;;;;0.70;0.60;;;;;;;8.49;100.00;99356.53;5042442;28;20175;-77
2024/01/02 02:08:54;;;;;;;0.67;0.30;;;;;;;8.42;100.00;99344.59;5045635;28;20194;-77
2024/01/02 02:11:20;;;;;;;1.00;0.70;;;;;;;8.42;100.00;99339.44;5051503;28;20188;-78
2024/01/02 02:13:47;;;;;;;0.97;0.50;;;;;;;8.42;100.00;99340.28;5045151;28;20210;-78
2024/01/02 02:16:14;;;;;;;0.83;0.50;;;;;;;8.43;100.00;99342.00;5052778;28;20174;-77
2024/01/02 02:18:39;;;;;;;2.00;0.50;;;;;;;8.41;100.00;99325.69;5053205;28;20758;-77
2024/01/02 02:21:04;;;;;;;1.27;0.60;;;;;;;8.42;100.00;99327.41;5051141;28;20199;-77
2024/01/02 02:23:30;;;;;;;1.83;0.50;;;;;;;8.38;100.00;99318.03;5048994;28;20214;-78
2024/01/02 02:25:55;;;;;;;1.00;0.60;;;;;;;8.38;100.00;99318.03;5047123;28;20186;-77
2024/01/02 02:28:21;;;;;;;0.93;0.60;;;;;;;8.38;100.00;99311.13;5050308;28;20271;-77
2024/01/02 02:30:46;;;;;;;1.50;0.50;;;;;;;8.37;100.00;99306.84;5065540;28;20275;-77
2024/01/02 02:33:11;;;;;;;2.10;0.57;;;;;;;8.33;100.00;99307.75;5056409;28;20711;-77
2024/01/02 02:35:36;;;;;;;0.70;0.47;;;;;;;8.33;100.00;99304.34;5058571;28;20585;-78
2024/01/02 02:38:02;;;;;;;2.27;0.80;;;;;;;8.28;100.00;99301.84;5053279;28;20199;-78
2024/01/02 02:40:27;;;;;;;1.30;0.50;;;;;;;8.26;100.00;99298.44;5056773;28;20221;-78
2024/01/02 02:42:53;;;;;;;1.10;0.67;;;;;;;8.26;100.00;99290.69;5046200;28;20826;-78
2024/01/02 02:45:18;;;;;;;1.30;0.67;;;;;;;8.29;100.00;99292.38;5049000;28;20663;-77
2024/01/02 02:47:44;;;;;;;1.17;0.60;;;;;;;8.22;100.00;99286.47;5049095;28;20618;-78
2024/01/02 02:50:09;;;;;;;0.90;0.57;;;;;;;8.20;100.00;99283.91;5048254;28;20185;-79
2024/01/02 02:52:34;;;;;;;1.27;0.53;;;;;;;8.15;100.00;99285.72;5047456;28;20190;-77
2024/01/02 02:55:00;;;;;;;0.70;0.60;;;;;;;8.13;100.00;99281.47;5049967;28;20581;-78
2024/01/02 02:57:25;;;;;;;1.30;0.43;;;;;;;8.08;100.00;99272.06;5043604;28;20973;-77
2024/01/02 02:59:51;;;;;;;0.97;0.60;;;;;;;8.03;100.00;99263.53;5045036;28;20220;-77
2024/01/02 03:02:17;;;;;;;2.10;0.77;;;;;;;8.04;100.00;99251.53;5044194;28;20193;-77
2024/01/02 03:04:43;;;;;;;2.40;0.70;;;;;;;7.99;100.00;99255.88;5044675;28;20612;-77
2024/01/02 03:07:09;;;;;;;1.30;0.50;;;;;;;7.98;100.00;99239.59;5047285;28;20653;-77
2024/01/02 03:09:34;;;;;;;1.83;0.80;;;;;;;7.95;100.00;99242.22;5053749;28;20187;-78
2024/01/02 03:12:00;;;;;;;0.87;0.70;;;;;;;7.93;100.00;99231.94;5053748;28;20239;-76
2024/01/02 03:14:25;;;;;;;1.10;0.50;;;;;;;7.90;100.00;99228.53;5049568;28;20204;-77
2024/01/02 03:16:50;;;;;;;1.03;0.80;;;;;;;7.96;100.00;99215.56;5045519;28;20187;-78
2024/01/02 03:19:16;;;;;;;1.43;0.60;;;;;;;7.88;100.00;99215.69;5045584;28;20236;-77
2024/01/02 03:21:41;;;;;;;1.27;0.70;;;;;;;7.87;100.00;99213.97;5045753;28;20260;-77
2024/01/02 03:24:06;;;;;;;2.90;0.90;;;;;;;7.82;100.00;99213.19;5043364;28;20764;-77
2024/01/02 03:26:32;;;;;;;1.73;0.50;;;;;;;7.77;100.00;99202.13;5053253;28;20186;-78
2024/01/02 03:28:57;;;;;;;0.87;0.60;;;;;;;7.81;100.00;99188.31;5044223;28;20171;-78
2024/01/02 03:31:22;;;;;;;0.90;0.67;;;;;;;7.78;100.00;99183.22;5052132;28;20193;-77
2024/01/02 03:33:48;;;;;;;1.30;0.60;;;;;;;7.75;100.00;99183.28;5044751;28;20213;-77
2024/01/02 03:36:18;;;;;;;2.27;0.70;;;;;;;7.72;100.00;99162.69;5046938;28;20223;-77
2024/01/02 03:38:44;;;;;;;1.43;0.57;;;;;;;7.66;100.00;99170.50;5048938;28;20300;-79
2024/01/02 03:41:09;;;;;;;1.03;0.67;;;;;;;7.68;100.00;99163.63;5045158;28;20186;-78
2024/01/02 03:43:35;;;;;;;0.90;0.60;;;;;;;7.63;100.00;99163.69;5053461;28;20362;-77
2024/01/02 03:46:00;;;;;;;0.73;0.50;;;;;;;7.61;100.00;99150.00;5049002;28;20188;-77
2024/01/02 03:48:25;;;;;;;1.13;0.50;;;;;;;7.71;100.00;99143.84;5046010;28;20185;-77
2024/01/02 03:50:50;;;;;;;0.80;0.40;;;;;;;7.62;100.00;99142.25;5046960;28;20228;-77
2024/01/02 03:53:16;;;;;;;0.80;0.40;;;;;;;7.63;100.00;99140.53;5047235;28;20219;-78
2024/01/02 03:55:41;;;;;;;0.50;0.50;;;;;;;7.55;100.00;99139.81;5053125;28;20663;-77
2024/01/02 03:58:06;;;;;;;1.53;0.50;;;;;;;7.58;100.00;99132.88;5057006;28;20252;-77
2024/01/02 04:00:33;;;;;;;0.53;0.43;;;;;;;7.58;100.00;99134.56;5053240;28;20187;-77
2024/01/02 04:02:59;;;;;;;0.50;0.40;;;;;;;7.59;100.00;99126.84;5051128;28;20201;-77
2024/01/02 04:05:24;;;;;;;0.50;0.50;;;;;;;7.63;100.00;99125.06;5046588;28;20239;-76
2024/01/02 04:07:49;;;;;;;0.47;0.20;;;;;;;7.63;100.00;99120.78;5045605;28;20194;-77
2024/01/02 04:10:15;;;;;;;1.70;0.40;;;;;;;7.69;100.00;99119.84;5057767;28;20232;-78
2024/01/02 04:12:40;;;;;;;0.30;0.30;;;;;;;7.61;100.00;99107.09;5051077;28;20192;-77
2024/01/02 04:15:05;;;;;;;0.60;0.30;;;;;;;7.60;100.00;99099.38;5047945;28;20207;-78
2024/01/02 04:17:31;;;;;;;0.50;0.40;;;;;;;7.54;100.00;99100.31;5054135;28;20568;-77
2024/01/02 04:19:56;;;;;;;0.63;0.30;;;;;;;7.56;100.00;99085.69;5052444;28;20190;-78
2024/01/02 04:22:22;;;;;;;0.70;0.30;;;;;;;7.62;100.00;99083.03;5059654;28;20220;-77
2024/01/02 04:24:47;;;;;;;0.60;0.40;;;;;;;7.62;100.00;99065.00;5057538;28;20207;-77
2024/01/02 04:27:12;;;;;;;1.37;0.30;;;;;;;7.62;100.00;99064.16;5055693;28;20194;-78
2024/01/02 04:29:38;;;;;;;0.63;0.30;;;;;;;7.58;100.00;99054.75;5052813;28;20192;-78
2024/01/02 04:32:04;;;;;;;0.97;0.40;;;;;;;7.63;100.00;99040.09;5058133;28;20208;-79
2024/01/02 04:34:29;;;;;;;1.07;0.40;;;;;;;7.66;100.00;99041.75;5051576;28;20206;-79
2024/01/02 04:36:54;;;;;;;0.83;0.40;;;;;;;7.60;100.00;99024.69;5055203;28;20193;-78
2024/01/02 04:39:20;;;;;;;0.30;0.20;;;;;;;7.59;100.00;99015.28;5051314;28;20212;-78
2024/01/02 04:41:45;;;;;;;0.53;0.30;;;;;;;7.63;100.00;99009.19;5054554;28;20202;-76
2024/01/02 04:44:10;;;;;;;1.43;0.27;;;;;;;7.61;100.00;99011.81;5061980;28;20217;-78
2024/01/02 04:46:36;;;;;;;1.80;0.40;;;;;;;7.68;100.00;99012.56;5055236;28;20206;-78
2024/01/02 04:49:01;;;;;;;0.83;0.40;;;;;;;7.60;100.00;99004.97;5050595;28;20240;-77
2024/01/02 04:51:28;;;;;;;0.97;0.50;;;;;;;7.69;100.00;99014.25;5056170;28;20185;-78
2024/01/02 04:53:53;;;;;;;0.40;0.30;;;;;;;7.66;100.00;98980.81;5046883;28;20214;-76
2024/01/02 04:56:19;;;;;;;0.33;0.30;;;;;;;7.60;100.00;98989.50;5051907;28;20282;-77
2024/01/02 04:58:44;;;;;;;0.60;0.30;;;;;;;7.60;100.00;98979.22;5054080;28;20227;-76
2024/01/02 05:01:09;;;;;;;0.60;0.20;;;;;;;7.64;100.00;98985.16;5059028;28;20224;-78
2024/01/02 05:03:35;;;;;;;0.30;0.30;;;;;;;7.64;100.00;98974.84;5052602;28;20217;-78
2024/01/02 05:06:00;;;;;;;0.43;0.40;;;;;;;7.64;100.00;98977.44;5053175;28;20216;-79
2024/01/02 05:08:26;;;;;;;0.37;0.30;;;;;;;7.61;100.00;98967.19;5056115;28;20178;-78
2024/01/02 05:10:52;;;;;;;1.60;0.27;;;;;;;7.63;100.00;98955.13;5054838;28;20181;-79
2024/01/02 05:13:18;;;;;;;0.67;0.30;;;;;;;7.63;100.00;98952.56;5058146;28;20219;-78
2024/01/02 05:15:43;;;;;;;0.20;0.20;;;;;;;7.69;100.00;98952.44;5052949;28;20922;-79
2024/01/02 05:18:08;;;;;;;0.43;0.30;;;;;;;7.68;100.00;98957.59;5053763;28;20208;-78
2024/01/02 05:20:34;;;;;;;2.33;0.40;;;;;;;7.63;100.00;98949.97;5060048;28;20182;-79
2024/01/02 05:23:03;;;;;;;0.30;0.30;;;;;;;7.61;100.00;98950.00;5060316;28;20208;-78
2024/01/02 05:25:31;;;;;;;0.60;0.27;;;;;;;7.61;100.00;98950.00;5054334;28;20545;-77
2024/01/02 05:27:56;;;;;;;0.53;0.30;;;;;;;7.59;100.00;98949.19;5059925;28;20198;-76
2024/01/02 05:30:22;;;;;;;0.57;0.30;;;;;;;7.61;100.00;98944.88;5056373;28;20229;-78
2024/01/02 05:32:47;;;;;;;1.07;0.40;;;;;;;7.60;100.00;98939.72;5059376;28;20197;-78
2024/01/02 05:35:13;;;;;;;0.17;0.13;;;;;;;7.58;100.00;98926.91;5052347;28;20184;-77
2024/01/02 05:37:38;;;;;;;0.70;0.20;;;;;;;7.57;100.00;98917.47;5052707;28;20755;-78
2024/01/02 05:40:04;;;;;;;0.30;0.30;;;;;;;7.60;100.00;98903.69;5054291;28;20194;-77
2024/01/02 05:42:29;;;;;;;0.30;0.30;;;;;;;7.60;100.00;98913.97;5054487;28;20825;-77
2024/01/02 05:44:55;;;;;;;0.30;0.30;;;;;;;7.61;100.00;98885.66;5052308;28;20232;-77
2024/01/02 05:47:20;;;;;;;0.40;0.33;;;;;;;7.62;100.00;98881.34;5055046;28;20272;-78
2024/01/02 05:49:45;;;;;;;0.53;0.20;;;;;;;7.62;100.00;98881.34;5054383;28;20199;-77
2024/01/02 05:52:10;;;;;;;0.77;0.50;;;;;;;7.62;100.00;98877.06;5053415;28;20319;-78
2024/01/02 05:54:36;;;;;;;0.20;0.20;;;;;;;7.60;100.00;98875.34;5053372;28;20216;-79
2024/01/02 05:57:02;;;;;;;0.37;0.30;;;;;;;7.63;100.00;98875.31;5047124;28;20867;-78
2024/01/02 05:59:27;;;;;;;0.83;0.30;;;;;;;7.65;100.00;98886.44;5053621;28;20229;-78
2024/01/02 06:01:53;;;;;;;0.30;0.30;;;;;;;7.65;100.00;98891.56;5055139;28;20202;-78
2024/01/02 06:04:18;;;;;;;0.37;0.30;;;;;;;7.63;100.00;98896.78;5052240;28;20306;-80
2024/01/02 06:06:43;;;;;;;0.87;0.23;;;;;;;7.68;100.00;98876.06;5052752;28;20670;-78
2024/01/02 06:09:09;;;;;;;1.40;0.30;;;;;;;7.68;100.00;98882.94;5052080;28;20193;-77
2024/01/02 06:11:35;;;;;;;0.60;0.23;;;;;;;7.68;100.00;98881.22;5048160;28;20200;-76
2024/01/02 06:14:01;;;;;;;0.57;0.40;;;;;;;7.71;100.00;98883.75;5050876;28;20210;-77
2024/01/02 06:16:27;;;;;;;0.80;0.40;;;;;;;7.72;100.00;98882.84;5049815;28;20272;-77
2024/01/02 06:18:52;;;;;;;0.67;0.27;;;;;;;7.74;100.00;98862.22;5053762;28;20225;-78
2024/01/02 06:21:17;;;;;;;0.40;0.40;;;;;;;7.73;100.00;98857.94;5045929;28;20430;-77
2024/01/02 06:23:43;;;;;;;0.40;0.40;;;;;;;7.74;100.00;98857.91;5045451;28;20216;-77
2024/01/02 06:26:11;;;;;;;0.30;0.30;;;;;;;7.72;100.00;98858.81;5051167;28;20307;-79
2024/01/02 06:28:36;;;;;;;0.90;0.40;;;;;;;7.73;100.00;98851.06;5049949;28;20217;-78
2024/01/02 06:31:05;;;;;;;0.43;0.30;;;;;;;7.79;100.00;98860.38;5057305;28;20217;-77
2024/01/02 06:33:31;;;;;;;0.70;0.57;;;;;;;7.86;100.00;98861.13;5057048;28;20461;-77
2024/01/02 06:35:56;;;;;;;0.53;0.20;;;;;;;7.83;100.00;98853.47;5051376;28;20722;-77
2024/01/02 06:38:22;;;;;;;0.80;0.30;;;;;;;7.84;100.00;98868.88;5051252;28;20213;-78
2024/01/02 06:40:47;;;;;;;0.60;0.30;;;;;;;7.87;100.00;98857.66;5047914;28;20229;-77
2024/01/02 06:43:12;;;;;;;0.67;0.30;;;;;;;7.87;100.00;98866.25;5055114;28;20305;-78
2024/01/02 06:45:38;;;;;;;0.63;0.50;;;;;;;7.92;100.00;98861.00;5059843;28;20264;-78
2024/01/02 06:48:03;;;;;;;0.63;0.40;;;;;;;7.89;100.00;98848.16;5054475;28;20219;-78
2024/01/02 06:50:29;;;;;;;0.40;0.20;;;;;;;7.93;100.00;98862.69;5049725;28;20244;-78
2024/01/02 06:52:54;;;;;;;1.17;0.20;;;;;;;7.88;100.00;98870.50;5045122;28;20193;-77
2024/01/02 06:55:19;;;;;;;0.23;0.20;;;;;;;7.96;100.00;98870.34;5050862;28;20272;-77
2024/01/02 06:57:44;;;;;;;0.43;0.30;;;;;;;7.93;100.00;98871.28;5056368;28;20581;-78
2024/01/02 07:00:10;;;;;;;0.97;0.20;;;;;;;7.95;100.00;98878.97;5046675;28;20679;-78
2024/01/02 07:02:36;;;;;;;1.73;0.27;;;;;;;7.97;100.00;98890.09;5056673;28;20195;-77
2024/01/02 07:05:03;;;;;;;0.60;0.20;;;;;;;8.00;100.00;98889.16;5055063;28;20274;-77
2024/01/02 07:07:28;;;;;;;1.23;0.30;;;;;;;7.97;100.00;98879.78;5059214;28;20194;-78
2024/01/02 07:09:53;;;;;;;0.80;0.30;;;;;;;8.03;100.00;98894.25;5043234;28;20198;-77
2024/01/02 07:12:19;;;;;;;0.43;0.33;;;;;;;8.01;100.00;98902.03;5042904;28;20189;-77
2024/01/02 07:14:44;;;;;;;0.30;0.30;;;;;;;7.97;100.00;98905.53;5048511;28;20771;-78
2024/01/02 07:17:10;;;;;;;0.50;0.30;;;;;;;8.03;100.00;98902.00;5057202;28;20560;-78
2024/01/02 07:19:36;;;;;;;1.33;0.50;;;;;;;8.02;100.00;98910.59;5049235;28;20605;-77
2024/01/02 07:22:02;;;;;;;0.80;0.30;;;;;;;8.08;100.00;98923.38;5057542;28;20720;-78
2024/01/02 07:24:27;;;;;;;1.27;0.27;;;;;;;8.05;100.00;98915.69;5059829;28;20207;-78
2024/01/02 07:26:55;;;;;;;0.50;0.40;;;;;;;8.09;100.00;98919.91;5053955;28;20197;-79
2024/01/02 07:29:20;;;;;;;0.93;0.43;;;;;;;8.07;100.00;98937.97;5052262;28;20640;-77
2024/01/02 07:31:46;;;;;;;0.83;0.30;;;;;;;8.09;100.00;98930.22;5052274;28;20277;-78
2024/01/02 07:34:13;;;;;;;0.40;0.30;;;;;;;8.13;100.00;98931.00;5062421;28;20201;-78
2024/01/02 07:36:39;;;;;;;0.83;0.30;;;;;;;8.13;100.00;98934.41;5056031;28;20551;-78
2024/01/02 07:39:04;;;;;;;0.40;0.30;;;;;;;8.14;100.00;98943.84;5057909;28;20229;-78
2024/01/02 07:41:30;;;;;;;0.43;0.40;;;;;;;8.13;100.00;98949.03;5052190;28;20269;-77
2024/01/02 07:43:55;;;;;;;0.70;0.37;;;;;;;8.13;100.00;98951.59;5065986;28;20202;-76
2024/01/02 07:46:21;;;;;;;0.60;0.47;;;;;;;8.15;100.00;98942.94;5062727;28;20178;-78
2024/01/02 07:48:46;;;;;;;0.57;0.37;;;;;;;8.17;100.00;98959.25;5057521;28;20178;-78
2024/01/02 07:51:11;;;;;;;0.47;0.40;;;;;;;8.19;100.00;98949.75;5053841;28;20288;-78
2024/01/02 07:53:37;;;;;;;0.60;0.50;;;;;;;8.17;100.00;98960.94;5052664;28;20207;-77
2024/01/02 07:56:04;;;;;;;0.57;0.50;;;;;;;8.16;100.00;98965.28;5051485;28;20198;-78
2024/01/02 07:58:29;;;;;;;0.40;0.40;;;;;;;8.15;100.00;98958.41;5053848;28;20201;-78
2024/01/02 08:00:55;;;;;;;2.20;0.50;;;;;;;8.15;100.00;98955.84;5045824;28;20212;-77
2024/01/02 08:03:20;;;;;;;3.10;0.60;;;;;;;8.18;100.00;98967.81;5054913;28;20216;-78
2024/01/02 08:05:46;;;;;;;0.60;0.50;;;;;;;8.22;100.00;98978.03;5058327;28;20679;-76
2024/01/02 08:08:11;;;;;;;1.53;0.60;;;;;;;8.20;100.00;98972.06;5047053;28;20189;-77
2024/01/02 08:10:37;;;;;;;0.73;0.50;;;;;;;8.22;100.00;98969.44;5049721;28;20261;-78
2024/01/02 08:13:03;;;;;;;1.07;0.50;;;;;;;8.27;100.00;98970.22;5054168;28;20220;-77
2024/01/02 08:15:28;;;;;;;0.97;0.40;;;;;;;8.24;100.00;98965.13;5053607;28;20747;-77
2024/01/02 08:17:53;;;;;;;0.67;0.50;;;;;;;8.28;100.00;98969.34;5055363;28;20206;-77
2024/01/02 08:20:19;;;;;;;0.70;0.63;;;;;;;8.28;100.00;98976.19;5052358;28;20192;-77
2024/01/02 08:22:44;;;;;;;1.67;0.50;;;;;;;8.29;100.00;98970.16;5050807;28;20190;-79
2024/01/02 08:25:09;;;;;;;1.70;0.60;;;;;;;8.31;100.00;98971.84;5053650;28;20191;-77
2024/01/02 08:27:35;;;;;;;0.83;0.40;;;;;;;8.30;100.00;98974.44;5053099;28;20193;-77
2024/01/02 08:30:01;;;;;;;1.23;0.53;;;;;;;8.33;100.00;98957.16;5055418;28;20559;-79
2024/01/02 08:32:28;;;;;;;0.60;0.43;;;;;;;8.32;100.00;98955.47;5055218;28;20186;-77
2024/01/02 08:34:54;;;;;;;0.50;0.40;;;;;;;8.34;100.00;98955.47;5057946;28;20592;-76
2024/01/02 08:37:19;;;;;;;0.50;0.40;;;;;;;8.37;100.00;98951.09;5053564;28;21824;-78
2024/01/02 08:39:44;;;;;;;0.60;0.40;;;;;;;8.39;100.00;98957.06;5052671;28;20266;-78
2024/01/02 08:42:10;;;;;;;0.80;0.43;;;;;;;8.41;100.00;98957.00;5048079;28;20214;-77
2024/01/02 08:44:35;;;;;;;0.47;0.30;;;;;;;8.39;100.00;98951.06;5048167;28;20207;-77
2024/01/02 08:47:01;;;;;;;0.80;0.50;;;;;;;8.41;100.00;98954.44;5055460;28;20189;-77
2024/01/02 08:49:27;;;;;;;0.50;0.40;;;;;;;8.44;100.00;98950.97;5054606;28;20182;-76
2024/01/02 08:51:52;;;;;;;0.93;0.47;;;;;;;8.50;100.00;98959.44;5055045;28;20197;-78
2024/01/02 08:54:18;;;;;;;0.70;0.47;;;;;;;8.54;100.00;98962.78;5050365;28;20226;-77
2024/01/02 08:56:43;;;;;;;1.27;0.60;;;;;;;8.52;100.00;98960.25;5047302;28;20211;-77
2024/01/02 08:59:08;;;;;;;0.97;0.30;;;;;;;8.58;100.00;98966.16;5053666;28;20213;-78
2024/01/02 09:01:34;;;;;;;0.93;0.30;;;;;;;8.59;100.00;98966.13;5050870;28;20241;-77
2024/01/02 09:03:59;;;;;;;1.07;0.70;;;;;;;8.61;100.00;98963.50;5059085;28;20209;-78
2024/01/02 09:06:24;;;;;;;1.07;0.50;;;;;;;8.56;100.00;98971.34;5050685;28;20220;-77
2024/01/02 09:08:50;;;;;;;0.60;0.30;;;;;;;8.65;100.00;98972.88;5053693;28;20207;-78
2024/01/02 09:11:16;;;;;;;0.70;0.40;;;;;;;8.65;100.00;98975.47;5057370;28;20182;-77
2024/01/02 09:13:41;;;;;;;1.33;0.40;;;;;;;8.69;100.00;98983.09;5047020;28;20692;-77
2024/01/02 09:16:10;;;;;;;1.60;0.60;;;;;;;8.73;100.00;98986.44;5047901;28;20182;-76
2024/01/02 09:18:36;;;;;;;0.60;0.60;;;;;;;8.74;100.00;98979.56;5049058;28;20213;-77
2024/01/02 09:21:01;;;;;;;1.00;0.60;;;;;;;8.77;100.00;98984.66;5051286;28;20186;-78
2024/01/02 09:23:27;;;;;;;1.57;0.60;;;;;;;8.78;100.00;98991.50;5048491;28;20210;-77
2024/01/02 09:25:57;;;;;;;1.37;0.73;;;;;;;8.75;100.00;98982.09;5049899;28;20213;-77
2024/01/02 09:28:22;;;;;;;0.60;0.50;;;;;;;8.74;100.00;98988.13;5048133;28;20186;-78
2024/01/02 09:30:48;;;;;;;1.47;0.87;;;;;;;8.72;100.00;98994.22;5051941;28;20204;-77
2024/01/02 09:33:14;;;;;;;1.40;0.60;;;;;;;8.79;100.00;98985.44;5054825;28;20216;-77
2024/01/02 09:35:42;;;;;;;1.63;0.80;;;;;;;8.78;100.00;98989.78;5056163;28;20191;-77
2024/01/02 09:38:07;;;;;;;0.70;0.57;;;;;;;8.83;100.00;98992.25;5051571;28;20202;-78
2024/01/02 09:40:54;;;;;;;1.30;0.60;;;;;;;8.89;100.00;98991.25;5056125;28;20183;-78
2024/01/02 09:43:54;;;;;;;1.17;0.40;;;;;;;8.88;100.00;98999.88;5049358;28;20205;-78
2024/01/02 09:46:46;;;;;;;0.70;0.60;;;;;;;8.91;100.00;98999.81;5050522;28;20269;-76
2024/01/02 09:49:14;;;;;;;0.87;0.50;;;;;;;8.93;100.00;98998.88;5049498;28;20184;-76
2024/01/02 09:51:46;;;;;;;0.70;0.60;;;;;;;8.92;100.00;98997.22;5050484;28;20190;-77
2024/01/02 09:54:42;;;;;;;0.93;0.60;;;;;;;8.96;100.00;98996.22;5053532;28;20203;-77
2024/01/02 09:57:18;;;;;;;1.17;0.80;;;;;;;8.96;100.00;98996.22;5048026;28;21889;-76
2024/01/02 10:00:05;;;;;;;1.00;0.60;;;;;;;9.00;100.00;98991.84;5054718;28;20206;-77
2024/01/02 10:02:43;;;;;;;1.10;0.80;;;;;;;9.06;100.00;98999.44;5044059;28;20273;-76
2024/01/02 10:05:33;;;;;;;0.80;0.60;;;;;;;9.08;100.00;98984.78;5051462;28;20185;-77
2024/01/02 10:08:04;;;;;;;0.53;0.47;;;;;;;9.09;100.00;98977.88;5049853;28;20301;-76
2024/01/02 10:10:42;;;;;;;0.57;0.57;;;;;;;9.08;100.00;98984.78;5048443;28;20200;-78
2024/01/02 10:13:21;;;;;;;1.13;0.70;;;;;;;9.13;100.00;98975.22;5050535;28;20682;-79
2024/01/02 10:15:52;;;;;;;0.60;0.47;;;;;;;9.17;100.00;98964.78;5048872;28;20204;-76
2024/01/02 10:18:42;;;;;;;0.67;0.57;;;;;;;9.17;100.00;98968.22;5049187;28;21569;-77
2024/01/02 10:21:20;;;;;;;0.60;0.50;;;;;;;9.19;100.00;98957.84;5052596;28;20191;-76
2024/01/02 10:23:51;;;;;;;0.77;0.60;;;;;;;9.21;100.00;98948.34;5049783;28;20209;-79
2024/01/02 10:26:19;;;;;;;0.50;0.40;;;;;;;9.23;100.00;98950.00;5055422;28;20310;-77
2024/01/02 10:28:48;;;;;;;0.93;0.53;;;;;;;9.27;100.00;98943.03;5049421;28;20182;-76
2024/01/02 10:31:25;;;;;;;1.50;0.40;;;;;;;9.30;100.00;98932.63;5049918;28;20274;-78
2024/01/02 10:34:04;;;;;;;0.70;0.43;;;;;;;9.33;100.00;98929.97;5051000;28;20209;-77
2024/01/02 10:36:35;;;;;;;0.70;0.60;;;;;;;9.35;100.00;98922.19;5052551;28;20239;-77
2024/01/02 10:39:04;;;;;;;1.23;0.40;;;;;;;9.39;100.00;98914.31;5051936;28;20877;-77
2024/01/02 10:41:39;;;;;;;1.07;0.50;;;;;;;9.45;100.00;98903.81;5053008;28;20269;-76
2024/01/02 10:44:20;;;;;;;0.63;0.40;;;;;;;9.45;100.00;98903.81;5051659;28;20689;-77
2024/01/02 10:46:49;;;;;;;0.70;0.50;;;;;;;9.51;100.00;98897.66;5050937;28;20265;-77
2024/01/02 10:49:26;;;;;;;0.87;0.67;;;;;;;9.53;100.00;98898.44;5051587;28;20187;-77
2024/01/02 10:52:02;;;;;;;0.70;0.50;;;;;;;9.56;100.00;98890.63;5057002;28;20282;-78
2024/01/02 10:54:41;;;;;;;0.80;0.60;;;;;;;9.53;100.00;98895.03;5049777;28;20237;-76
2024/01/02 10:57:14;;;;;;;1.33;0.63;;;;;;;9.55;100.00;98890.66;5054293;28;20258;-77
2024/01/02 11:00:01;;;;;;;0.80;0.53;;;;;;;9.56;100.00;98877.69;5057973;28;20202;-75
2024/01/02 11:02:39;;;;;;;1.13;0.57;;;;;;;9.62;100.00;98881.84;5053061;28;20190;-77
2024/01/02 11:05:19;;;;;;;1.17;0.57;;;;;;;9.65;100.00;98862.84;5053658;28;20210;-77
2024/01/02 11:07:49;;;;;;;0.63;0.30;;;;;;;9.69;100.00;98862.72;5057640;28;20186;-77
2024/01/02 11:10:19;;;;;;;0.57;0.40;;;;;;;9.72;100.00;98836.81;5058620;28;20198;-78
2024/01/02 11:12:53;;;;;;;0.67;0.40;;;;;;;9.77;100.00;98845.25;5057386;28;20194;-77
2024/01/02 11:15:19;;;;;;;0.80;0.47;;;;;;;9.81;100.00;98840.88;5056204;28;20187;-77
2024/01/02 11:17:47;;;;;;;0.40;0.30;;;;;;;9.83;100.00;98835.63;5057628;28;20194;-78
2024/01/02 11:20:19;;;;;;;0.43;0.30;;;;;;;9.84;100.00;98830.41;5052546;28;20229;-77
2024/01/02 11:23:15;;;;;;;0.90;0.47;;;;;;;9.91;100.00;98816.44;5054499;28;20194;-77
2024/01/02 11:25:54;;;;;;;0.87;0.57;;;;;;;9.90;100.00;98811.31;5041982;28;20198;-78
2024/01/02 11:28:21;;;;;;;0.50;0.40;;;;;;;9.92;100.00;98814.69;5057889;28;20185;-76
2024/01/02 11:30:47;;;;;;;0.97;0.63;;;;;;;9.92;100.00;98809.50;5054528;28;20243;-77
2024/01/02 11:33:34;;;;;;;0.70;0.40;;;;;;;10.01;100.00;98805.81;5056502;28;20202;-75